EW5961 Weather Reports


Display with metric or nautical units.
time (UTC)temp
F
wind
direction
speed
MPH
gust
MPH
rain 1hr
in
rain 24hr
in
rain mn
in
humidity
%
barometer
mb
20240614183026 89 80 5.0 11.0 0.00 0.94 0.00 75 1008.4
20240614181533 89 86 5.0 10.0 0.00 0.94 0.00 75 1008.3
20240614180021 88 92 2.0 10.0 0.00 0.94 0.00 77 1008.5
20240614174527 87 66 3.0 9.0 0.00 0.94 0.00 79 1008.6
20240614173021 87 34 3.0 9.0 0.00 0.94 0.00 79 1008.7
20240614171516 86 38 2.0 7.0 0.00 0.94 0.00 81 1008.7
20240614170019 85 126 3.0 7.0 0.00 0.94 0.00 82 1009.2
20240614164514 85 43 0.0 5.0 0.00 0.94 0.00 82 1009.2
20240614163012 85 67 2.0 6.0 0.00 0.94 0.00 83 1009.2
20240614161510 85 38 3.0 5.0 0.00 0.94 0.00 84 1009.3
20240614160009 84 95 2.0 6.0 0.00 0.94 0.00 84 1009.5
20240614154506 84 31 1.0 4.0 0.00 0.94 0.00 85 1009.4
20240614153006 84 94 2.0 5.0 0.00 0.94 0.00 85 1009.4
20240614151503 83 83 1.0 5.0 0.00 0.94 0.00 86 1009.4
20240614150102 82 171 2.0 4.0 0.00 0.94 0.00 88 1009.4
20240614144557 81 148 2.0 6.0 0.00 0.94 0.00 89 1009.6
20240614143056 80 160 3.0 9.0 0.00 0.94 0.00 91 1009.6
20240614141555 80 152 2.0 9.0 0.00 0.94 0.00 92 1009.8
20240614140048 80 101 9.0 11.0 0.00 0.94 0.00 92 1009.9
20240614134547 80 94 5.0 8.0 0.00 0.94 0.00 93 1009.8
20240614133043 79 22 2.0 8.0 0.00 0.94 0.00 94 1009.9
20240614131541 78 94 3.0 7.0 0.00 0.94 0.00 94 1009.7
20240614130036 78 80 3.0 6.0 0.00 0.94 0.00 95 1009.8
20240614124533 78 102 3.0 6.0 0.00 0.94 0.00 95 1009.7
20240614123038 78 91 1.0 4.0 0.00 0.94 0.00 95 1009.7
20240614121528 77 66 3.0 6.0 0.00 0.94 0.00 95 1009.5
20240614120027 77 108 1.0 4.0 0.00 0.94 0.00 95 1009.3
20240614114546 77 67 3.0 9.0 0.00 0.94 0.00 95 1009.0
20240614113127 77 77 4.0 7.0 0.00 0.94 0.00 95 1008.7
20240614111543 77 78 2.0 5.0 0.00 0.94 0.00 95 1008.4
20240614110024 77 180 0.0 2.0 0.00 0.94 0.00 95 1008.4
20240614104522 77 180 1.0 5.0 0.00 0.94 0.00 95 1008.4
20240614103033 77 136 1.0 2.0 0.00 0.94 0.00 95 1008.5
20240614101527 77 136 2.0 5.0 0.00 0.94 0.00 95 1008.2
20240614100031 77 126 2.0 4.0 0.00 0.94 0.00 95 1008.1
20240614094535 77 123 2.0 4.0 0.00 0.96 0.00 94 1008.0
20240614093038 77 142 2.0 5.0 0.00 0.96 0.00 94 1008.2
20240614091519 77 78 2.0 4.0 0.00 0.96 0.00 94 1008.1
20240614090017 77 128 2.0 4.0 0.00 0.96 0.00 94 1008.5
20240614084521 77 129 2.0 5.0 0.00 0.98 0.00 94 1008.6
20240614083015 77 137 2.0 4.0 0.00 0.98 0.00 94 1008.7
20240614081518 77 163 3.0 7.0 0.00 0.98 0.00 94 1008.9
20240614080012 77 141 5.0 8.0 0.00 0.98 0.00 94 1008.9
20240614074512 77 149 2.0 5.0 0.00 1.01 0.00 94 1009.1
20240614073013 77 122 3.0 5.0 0.00 1.01 0.00 93 1008.9
20240614071509 78 121 5.0 9.0 0.00 1.01 0.00 93 1008.8
20240614070006 78 137 3.0 5.0 0.00 1.09 0.00 93 1009.1
20240614064515 78 119 3.0 6.0 0.00 1.09 0.00 93 1009.1
20240614063006 78 51 1.0 2.0 0.00 1.09 0.00 93 1009.2
20240614061502 78 51 2.0 3.0 0.00 1.09 0.00 92 1009.3
20240614060107 78 51 1.0 4.0 0.00 1.09 0.00 93 1009.4
20240614054601 78 35 3.0 5.0 0.00 1.17 1.09 93 1009.7
20240614053104 78 72 2.0 5.0 0.00 1.17 1.09 93 1009.9
20240614050059 78 84 1.0 6.0 0.00 1.17 1.09 93 1010.3
20240614044604 78 88 1.0 7.0 0.00 1.27 1.09 93 1010.3
20240614043055 78 98 3.0 9.0 0.00 1.27 1.09 92 1010.4
20240614041557 77 65 4.0 7.0 0.01 1.27 1.09 92 1010.6
20240614040053 77 78 4.0 8.0 0.01 1.27 1.09 92 1010.9
20240614034601 77 103 4.0 9.0 0.02 1.30 1.09 92 1010.8
20240614033056 77 78 5.0 11.0 0.02 1.30 1.09 92 1010.9
20240614031552 78 92 7.0 11.0 0.02 1.29 1.08 92 1010.9
20240614030149 78 80 7.0 10.0 0.02 1.29 1.08 92 1010.8
20240614024550 78 76 8.0 13.0 0.01 1.34 1.07 92 1010.6
20240614023055 78 69 8.0 15.0 0.01 1.34 1.07 92 1010.4
20240614021549 78 79 8.0 16.0 0.00 1.33 1.06 91 1010.5
20240614020045 78 20 5.0 9.0 0.00 1.33 1.06 91 1009.8
20240614014544 77 68 2.0 7.0 0.01 2.54 1.06 91 1009.6
20240614013055 77 127 6.0 15.0 0.01 2.54 1.06 89 1010.1
20240614011556 79 107 10.0 16.0 0.02 2.54 1.06 89 1010.3
20240614010057 82 128 8.0 12.0 0.02 2.54 1.06 90 1010.2
20240614004546 82 32 10.0 13.0 0.01 2.56 1.06 90 1009.9
20240614003043 83 62 8.0 12.0 0.01 2.56 1.06 89 1009.7
20240614001544 83 350 6.0 11.0 0.00 2.54 1.05 89 1009.3
20240614000042 83 355 6.0 11.0 0.00 2.54 1.05 89 1009.0
20240613234541 82 338 6.0 11.0 0.00 2.54 1.05 91 1008.9
20240613233045 82 348 5.0 11.0 0.02 2.54 1.05 92 1008.7
20240613231545 81 355 3.0 8.0 0.15 2.54 1.05 93 1008.7
20240613230039 81 309 6.0 12.0 0.52 2.54 1.05 93 1007.9
20240613224553 81 307 8.0 12.0 0.86 2.54 1.05 92 1007.6
20240613223038 80 272 6.0 11.0 0.88 2.52 1.02 91 1008.2
20240613221541 81 269 10.0 13.0 0.75 2.39 0.89 90 1008.4
20240613220136 81 231 13.0 25.0 0.40 2.04 0.54 88 1008.7
20240613214537 85 243 12.0 29.0 0.05 1.69 0.19 76 1008.9
20240613213033 91 351 11.0 19.0 0.00 1.65 0.14 69 1007.6
20240613211540 94 330 9.0 14.0 0.00 1.65 0.14 65 1007.3
20240613210036 96 344 11.0 16.0 0.00 1.65 0.14 61 1006.9
20240613204531 95 355 10.0 16.0 0.00 1.69 0.14 62 1007.1
20240613203039 95 355 11.0 19.0 0.00 1.69 0.14 64 1007.0
20240613201532 99 325 6.0 14.0 0.00 1.69 0.14 51 1007.5
20240613200025 99 355 5.0 10.0 0.00 1.69 0.14 51 1007.6
20240613194524 98 328 7.0 11.0 0.00 1.69 0.14 54 1007.6
20240613193021 97 37 4.0 11.0 0.00 1.69 0.14 55 1008.0
20240613191519 97 296 3.0 9.0 0.00 1.69 0.14 57 1008.3
20240613190017 96 14 3.0 10.0 0.00 1.69 0.14 61 1008.4
20240613184535 95 287 1.0 10.0 0.00 1.69 0.14 62 1008.5